sensor_id;sensor_type;location;lat;lon;timestamp;pressure;altitude;pressure_sealevel;temperature;humidity
75640;BME280;64233;51.486;6.332;2023-07-31T00:01:40;100865.16;;;15.59;100.00
75640;BME280;64233;51.486;6.332;2023-07-31T00:04:06;100862.88;;;15.72;100.00
75640;BME280;64233;51.486;6.332;2023-07-31T00:06:31;100853.75;;;15.62;100.00
75640;BME280;64233;51.486;6.332;2023-07-31T00:08:56;100856.19;;;15.64;100.00
75640;BME280;64233;51.486;6.332;2023-07-31T00:11:21;100853.22;;;15.60;100.00
75640;BME280;64233;51.486;6.332;2023-07-31T00:13:47;100847.53;;;15.62;100.00
75640;BME280;64233;51.486;6.332;2023-07-31T00:16:12;100854.75;;;15.72;100.00
75640;BME280;64233;51.486;6.332;2023-07-31T00:18:37;100847.19;;;15.69;100.00
75640;BME280;64233;51.486;6.332;2023-07-31T00:21:02;100837.81;;;15.61;100.00
75640;BME280;64233;51.486;6.332;2023-07-31T00:23:28;100835.88;;;15.66;100.00
75640;BME280;64233;51.486;6.332;2023-07-31T00:25:53;100834.00;;;15.62;100.00
75640;BME280;64233;51.486;6.332;2023-07-31T00:28:18;100833.16;;;15.66;100.00
75640;BME280;64233;51.486;6.332;2023-07-31T00:30:43;100834.72;;;15.73;100.00
75640;BME280;64233;51.486;6.332;2023-07-31T00:33:09;100834.44;;;15.74;100.00
75640;BME280;64233;51.486;6.332;2023-07-31T00:35:34;100833.59;;;15.79;100.00
75640;BME280;64233;51.486;6.332;2023-07-31T00:37:59;100829.81;;;15.75;100.00
75640;BME280;64233;51.486;6.332;2023-07-31T00:40:25;100847.47;;;15.72;100.00
75640;BME280;64233;51.486;6.332;2023-07-31T00:42:50;100838.22;;;15.73;100.00
75640;BME280;64233;51.486;6.332;2023-07-31T00:45:15;100833.38;;;15.70;100.00
75640;BME280;64233;51.486;6.332;2023-07-31T00:47:41;100828.19;;;15.79;100.00
75640;BME280;64233;51.486;6.332;2023-07-31T00:50:07;100835.53;;;15.73;100.00
75640;BME280;64233;51.486;6.332;2023-07-31T00:52:32;100826.31;;;15.74;100.00
75640;BME280;64233;51.486;6.332;2023-07-31T00:54:58;100821.50;;;15.66;100.00
75640;BME280;64233;51.486;6.332;2023-07-31T00:57:24;100820.44;;;15.67;100.00
75640;BME280;64233;51.486;6.332;2023-07-31T00:59:49;100821.22;;;15.67;100.00
75640;BME280;64233;51.486;6.332;2023-07-31T01:02:14;100818.19;;;15.74;100.00
75640;BME280;64233;51.486;6.332;2023-07-31T01:04:42;100822.53;;;15.75;100.00
75640;BME280;64233;51.486;6.332;2023-07-31T01:07:16;100824.94;;;15.77;100.00
75640;BME280;64233;51.486;6.332;2023-07-31T01:12:21;100825.41;;;15.89;100.00
75640;BME280;64233;51.486;6.332;2023-07-31T01:17:31;100803.28;;;15.77;100.00
75640;BME280;64233;51.486;6.332;2023-07-31T01:20:01;100807.94;;;15.71;100.00
75640;BME280;64233;51.486;6.332;2023-07-31T01:28:13;100801.59;;;15.86;100.00
75640;BME280;64233;51.486;6.332;2023-07-31T01:30:44;100797.09;;;15.76;100.00
75640;BME280;64233;51.486;6.332;2023-07-31T01:33:11;100792.19;;;15.78;100.00
75640;BME280;64233;51.486;6.332;2023-07-31T01:35:37;100787.34;;;15.75;100.00
75640;BME280;64233;51.486;6.332;2023-07-31T01:38:03;100788.16;;;15.76;100.00
75640;BME280;64233;51.486;6.332;2023-07-31T01:40:28;100791.59;;;15.87;100.00
75640;BME280;64233;51.486;6.332;2023-07-31T01:42:53;100785.44;;;15.81;100.00
75640;BME280;64233;51.486;6.332;2023-07-31T01:45:19;100787.84;;;15.77;100.00
75640;BME280;64233;51.486;6.332;2023-07-31T01:47:44;100781.34;;;15.78;100.00
75640;BME280;64233;51.486;6.332;2023-07-31T01:50:10;100788.16;;;15.76;100.00
75640;BME280;64233;51.486;6.332;2023-07-31T01:52:35;100769.81;;;15.67;100.00
75640;BME280;64233;51.486;6.332;2023-07-31T01:55:01;100776.00;;;15.73;100.00
75640;BME280;64233;51.486;6.332;2023-07-31T01:57:26;100777.13;;;15.67;100.00
75640;BME280;64233;51.486;6.332;2023-07-31T01:59:51;100774.06;;;15.79;100.00
75640;BME280;64233;51.486;6.332;2023-07-31T02:02:19;100772.69;;;15.81;100.00
75640;BME280;64233;51.486;6.332;2023-07-31T02:04:44;100772.72;;;15.76;100.00
75640;BME280;64233;51.486;6.332;2023-07-31T02:07:09;100773.78;;;15.80;100.00
75640;BME280;64233;51.486;6.332;2023-07-31T02:09:34;100763.78;;;15.81;100.00
75640;BME280;64233;51.486;6.332;2023-07-31T02:12:00;100761.09;;;15.76;100.00
75640;BME280;64233;51.486;6.332;2023-07-31T02:14:25;100759.16;;;15.81;100.00
75640;BME280;64233;51.486;6.332;2023-07-31T02:16:50;100756.13;;;15.88;100.00
75640;BME280;64233;51.486;6.332;2023-07-31T02:19:16;100752.94;;;15.81;100.00
75640;BME280;64233;51.486;6.332;2023-07-31T02:21:41;100757.81;;;15.79;100.00
75640;BME280;64233;51.486;6.332;2023-07-31T02:24:06;100749.50;;;15.70;100.00
75640;BME280;64233;51.486;6.332;2023-07-31T02:26:31;100760.78;;;15.82;100.00
75640;BME280;64233;51.486;6.332;2023-07-31T02:28:57;100745.91;;;15.80;100.00
75640;BME280;64233;51.486;6.332;2023-07-31T02:31:22;100754.03;;;15.80;100.00
75640;BME280;64233;51.486;6.332;2023-07-31T02:33:47;100748.63;;;15.75;100.00
75640;BME280;64233;51.486;6.332;2023-07-31T02:36:12;100745.06;;;15.84;100.00
75640;BME280;64233;51.486;6.332;2023-07-31T02:38:39;100743.22;;;15.80;100.00
75640;BME280;64233;51.486;6.332;2023-07-31T02:41:04;100730.53;;;15.75;100.00
75640;BME280;64233;51.486;6.332;2023-07-31T02:43:30;100739.16;;;15.77;100.00
75640;BME280;64233;51.486;6.332;2023-07-31T02:45:55;100736.44;;;15.77;100.00
75640;BME280;64233;51.486;6.332;2023-07-31T02:48:20;100737.81;;;15.80;100.00
75640;BME280;64233;51.486;6.332;2023-07-31T02:50:47;100736.44;;;15.82;100.00
75640;BME280;64233;51.486;6.332;2023-07-31T02:53:12;100736.44;;;15.82;100.00
75640;BME280;64233;51.486;6.332;2023-07-31T02:55:37;100727.72;;;15.86;100.00
75640;BME280;64233;51.486;6.332;2023-07-31T02:58:03;100732.06;;;15.87;100.00
75640;BME280;64233;51.486;6.332;2023-07-31T03:00:29;100729.44;;;15.76;100.00
75640;BME280;64233;51.486;6.332;2023-07-31T03:02:54;100731.53;;;15.84;100.00
75640;BME280;64233;51.486;6.332;2023-07-31T03:05:19;100729.97;;;15.73;100.00
75640;BME280;64233;51.486;6.332;2023-07-31T03:07:44;100727.22;;;15.83;100.00
75640;BME280;64233;51.486;6.332;2023-07-31T03:10:10;100730.22;;;15.77;100.00
75640;BME280;64233;51.486;6.332;2023-07-31T03:12:35;100730.81;;;15.74;100.00
75640;BME280;64233;51.486;6.332;2023-07-31T03:15:00;100718.84;;;15.80;100.00
75640;BME280;64233;51.486;6.332;2023-07-31T03:17:26;100723.66;;;15.88;100.00
75640;BME280;64233;51.486;6.332;2023-07-31T03:19:51;100722.47;;;15.94;100.00
75640;BME280;64233;51.486;6.332;2023-07-31T03:22:16;100726.66;;;15.87;100.00
75640;BME280;64233;51.486;6.332;2023-07-31T03:24:41;100728.31;;;15.82;100.00
75640;BME280;64233;51.486;6.332;2023-07-31T03:27:07;100715.56;;;15.83;100.00
75640;BME280;64233;51.486;6.332;2023-07-31T03:29:32;100723.66;;;15.88;100.00
75640;BME280;64233;51.486;6.332;2023-07-31T03:31:57;100717.69;;;15.86;100.00
75640;BME280;64233;51.486;6.332;2023-07-31T03:34:22;100724.91;;;15.96;100.00
75640;BME280;64233;51.486;6.332;2023-07-31T03:36:48;100724.16;;;15.90;100.00
75640;BME280;64233;51.486;6.332;2023-07-31T03:39:13;100716.78;;;15.96;100.00
75640;BME280;64233;51.486;6.332;2023-07-31T03:41:38;100728.66;;;16.00;100.00
75640;BME280;64233;51.486;6.332;2023-07-31T03:44:04;100722.66;;;16.03;100.00
75640;BME280;64233;51.486;6.332;2023-07-31T03:46:29;100725.66;;;16.01;100.00
75640;BME280;64233;51.486;6.332;2023-07-31T03:48:54;100724.84;;;16.01;100.00
75640;BME280;64233;51.486;6.332;2023-07-31T03:51:19;100716.88;;;16.10;100.00
75640;BME280;64233;51.486;6.332;2023-07-31T03:53:45;100719.84;;;16.13;100.00
75640;BME280;64233;51.486;6.332;2023-07-31T03:56:10;100709.13;;;16.03;100.00
75640;BME280;64233;51.486;6.332;2023-07-31T03:58:36;100708.19;;;16.13;100.00
75640;BME280;64233;51.486;6.332;2023-07-31T04:01:02;100707.16;;;16.09;100.00
75640;BME280;64233;51.486;6.332;2023-07-31T04:03:27;100700.88;;;16.13;100.00
75640;BME280;64233;51.486;6.332;2023-07-31T04:05:54;100709.31;;;16.12;100.00
75640;BME280;64233;51.486;6.332;2023-07-31T04:08:23;100707.59;;;16.16;100.00
75640;BME280;64233;51.486;6.332;2023-07-31T04:10:49;100706.41;;;16.03;100.00
75640;BME280;64233;51.486;6.332;2023-07-31T04:13:14;100697.88;;;16.15;100.00
75640;BME280;64233;51.486;6.332;2023-07-31T04:15:40;100693.63;;;16.09;100.00
75640;BME280;64233;51.486;6.332;2023-07-31T04:18:06;100697.44;;;16.08;100.00
75640;BME280;64233;51.486;6.332;2023-07-31T04:20:31;100697.66;;;16.11;100.00
75640;BME280;64233;51.486;6.332;2023-07-31T04:22:56;100690.84;;;16.14;100.00
75640;BME280;64233;51.486;6.332;2023-07-31T04:25:22;100692.75;;;16.13;100.00
75640;BME280;64233;51.486;6.332;2023-07-31T04:27:47;100684.34;;;16.15;100.00
75640;BME280;64233;51.486;6.332;2023-07-31T04:30:12;100685.28;;;16.24;100.00
75640;BME280;64233;51.486;6.332;2023-07-31T04:32:38;100688.09;;;16.19;100.00
75640;BME280;64233;51.486;6.332;2023-07-31T04:35:03;100692.63;;;16.24;100.00
75640;BME280;64233;51.486;6.332;2023-07-31T04:37:29;100688.44;;;16.31;100.00
75640;BME280;64233;51.486;6.332;2023-07-31T04:39:54;100680.91;;;16.28;100.00
75640;BME280;64233;51.486;6.332;2023-07-31T04:42:19;100679.47;;;16.36;100.00
75640;BME280;64233;51.486;6.332;2023-07-31T04:44:44;100675.44;;;16.33;100.00
75640;BME280;64233;51.486;6.332;2023-07-31T04:47:10;100672.38;;;16.40;100.00
75640;BME280;64233;51.486;6.332;2023-07-31T04:49:35;100663.94;;;16.42;100.00
75640;BME280;64233;51.486;6.332;2023-07-31T04:52:00;100663.44;;;16.40;100.00
75640;BME280;64233;51.486;6.332;2023-07-31T04:54:26;100659.31;;;16.42;100.00
75640;BME280;64233;51.486;6.332;2023-07-31T04:56:51;100658.53;;;16.42;100.00
75640;BME280;64233;51.486;6.332;2023-07-31T04:59:17;100660.34;;;16.46;100.00
75640;BME280;64233;51.486;6.332;2023-07-31T05:01:43;100663.56;;;16.48;100.00
75640;BME280;64233;51.486;6.332;2023-07-31T05:04:12;100664.28;;;16.54;100.00
75640;BME280;64233;51.486;6.332;2023-07-31T05:06:37;100656.03;;;16.45;100.00
75640;BME280;64233;51.486;6.332;2023-07-31T05:09:02;100655.97;;;16.50;100.00
75640;BME280;64233;51.486;6.332;2023-07-31T05:11:27;100660.19;;;16.57;100.00
75640;BME280;64233;51.486;6.332;2023-07-31T05:13:53;100657.59;;;16.51;100.00
75640;BME280;64233;51.486;6.332;2023-07-31T05:16:18;100654.06;;;16.51;100.00
75640;BME280;64233;51.486;6.332;2023-07-31T05:18:43;100652.72;;;16.67;100.00
75640;BME280;64233;51.486;6.332;2023-07-31T05:21:08;100641.47;;;16.60;100.00
75640;BME280;64233;51.486;6.332;2023-07-31T05:23:34;100638.34;;;16.67;100.00
75640;BME280;64233;51.486;6.332;2023-07-31T05:26:06;100631.78;;;16.73;100.00
75640;BME280;64233;51.486;6.332;2023-07-31T05:28:34;100634.69;;;16.77;100.00
75640;BME280;64233;51.486;6.332;2023-07-31T05:31:01;100628.34;;;16.67;100.00
75640;BME280;64233;51.486;6.332;2023-07-31T05:33:26;100628.03;;;16.69;100.00
75640;BME280;64233;51.486;6.332;2023-07-31T05:35:51;100623.84;;;16.77;100.00
75640;BME280;64233;51.486;6.332;2023-07-31T05:38:17;100632.56;;;16.74;100.00
75640;BME280;64233;51.486;6.332;2023-07-31T05:40:42;100627.38;;;16.77;100.00
75640;BME280;64233;51.486;6.332;2023-07-31T05:43:08;100629.66;;;16.70;100.00
75640;BME280;64233;51.486;6.332;2023-07-31T05:45:34;100627.88;;;16.79;100.00
75640;BME280;64233;51.486;6.332;2023-07-31T05:47:59;100625.53;;;16.73;100.00
75640;BME280;64233;51.486;6.332;2023-07-31T05:50:25;100619.97;;;16.64;100.00
75640;BME280;64233;51.486;6.332;2023-07-31T05:52:50;100621.25;;;16.52;100.00
75640;BME280;64233;51.486;6.332;2023-07-31T05:55:16;100614.78;;;16.67;100.00
75640;BME280;64233;51.486;6.332;2023-07-31T05:57:42;100630.25;;;16.48;100.00
75640;BME280;64233;51.486;6.332;2023-07-31T06:00:07;100621.84;;;16.30;100.00
75640;BME280;64233;51.486;6.332;2023-07-31T06:02:33;100635.41;;;16.30;100.00
75640;BME280;64233;51.486;6.332;2023-07-31T06:05:02;100633.72;;;16.34;100.00
75640;BME280;64233;51.486;6.332;2023-07-31T06:07:27;100639.41;;;16.33;100.00
75640;BME280;64233;51.486;6.332;2023-07-31T06:09:52;100636.50;;;16.29;100.00
75640;BME280;64233;51.486;6.332;2023-07-31T06:12:20;100633.00;;;16.29;100.00
75640;BME280;64233;51.486;6.332;2023-07-31T06:14:45;100625.94;;;16.28;100.00
75640;BME280;64233;51.486;6.332;2023-07-31T06:17:13;100625.81;;;16.19;100.00
75640;BME280;64233;51.486;6.332;2023-07-31T06:19:38;100632.53;;;16.22;100.00
75640;BME280;64233;51.486;6.332;2023-07-31T06:22:04;100633.63;;;16.21;100.00
75640;BME280;64233;51.486;6.332;2023-07-31T06:24:29;100622.50;;;16.22;100.00
75640;BME280;64233;51.486;6.332;2023-07-31T06:26:54;100625.44;;;16.26;100.00
75640;BME280;64233;51.486;6.332;2023-07-31T06:29:20;100625.94;;;16.28;100.00
75640;BME280;64233;51.486;6.332;2023-07-31T06:31:45;100634.66;;;16.25;100.00
75640;BME280;64233;51.486;6.332;2023-07-31T06:34:10;100635.69;;;16.29;100.00
75640;BME280;64233;51.486;6.332;2023-07-31T06:36:36;100642.13;;;16.14;100.00
75640;BME280;64233;51.486;6.332;2023-07-31T06:39:01;100646.78;;;16.27;100.00
75640;BME280;64233;51.486;6.332;2023-07-31T06:41:26;100628.63;;;16.09;100.00
75640;BME280;64233;51.486;6.332;2023-07-31T06:43:52;100635.22;;;16.03;100.00
75640;BME280;64233;51.486;6.332;2023-07-31T06:46:17;100632.81;;;16.01;100.00
75640;BME280;64233;51.486;6.332;2023-07-31T06:48:42;100629.22;;;16.06;100.00
75640;BME280;64233;51.486;6.332;2023-07-31T06:51:08;100630.59;;;16.03;100.00
75640;BME280;64233;51.486;6.332;2023-07-31T06:53:33;100618.69;;;16.04;100.00
75640;BME280;64233;51.486;6.332;2023-07-31T06:55:58;100623.66;;;15.97;100.00
75640;BME280;64233;51.486;6.332;2023-07-31T06:58:23;100623.22;;;16.09;100.00
75640;BME280;64233;51.486;6.332;2023-07-31T07:00:49;100621.41;;;16.04;100.00
75640;BME280;64233;51.486;6.332;2023-07-31T07:03:18;100620.34;;;16.00;100.00
75640;BME280;64233;51.486;6.332;2023-07-31T07:05:43;100606.31;;;15.98;100.00
75640;BME280;64233;51.486;6.332;2023-07-31T07:08:09;100610.19;;;15.92;100.00
75640;BME280;64233;51.486;6.332;2023-07-31T07:10:34;100603.63;;;15.98;100.00
75640;BME280;64233;51.486;6.332;2023-07-31T07:12:59;100605.13;;;15.85;100.00
75640;BME280;64233;51.486;6.332;2023-07-31T07:15:24;100599.66;;;15.90;100.00
75640;BME280;64233;51.486;6.332;2023-07-31T07:17:50;100599.34;;;15.92;100.00
75640;BME280;64233;51.486;6.332;2023-07-31T07:20:15;100602.44;;;16.04;100.00
75640;BME280;64233;51.486;6.332;2023-07-31T07:22:40;100592.34;;;15.91;100.00
75640;BME280;64233;51.486;6.332;2023-07-31T07:25:08;100584.22;;;15.91;100.00
75640;BME280;64233;51.486;6.332;2023-07-31T07:27:33;100588.03;;;15.90;100.00
75640;BME280;64233;51.486;6.332;2023-07-31T07:29:59;100593.38;;;15.95;100.00
75640;BME280;64233;51.486;6.332;2023-07-31T07:32:24;100593.28;;;15.81;100.00
75640;BME280;64233;51.486;6.332;2023-07-31T07:34:49;100595.72;;;15.77;100.00
75640;BME280;64233;51.486;6.332;2023-07-31T07:37:15;100584.72;;;15.93;100.00
75640;BME280;64233;51.486;6.332;2023-07-31T07:39:41;100592.22;;;15.77;100.00
75640;BME280;64233;51.486;6.332;2023-07-31T07:42:06;100584.44;;;15.70;100.00
75640;BME280;64233;51.486;6.332;2023-07-31T07:44:31;100598.41;;;15.82;100.00
75640;BME280;64233;51.486;6.332;2023-07-31T07:46:57;100598.28;;;15.69;100.00
75640;BME280;64233;51.486;6.332;2023-07-31T07:49:22;100590.09;;;15.74;100.00
75640;BME280;64233;51.486;6.332;2023-07-31T07:51:48;100592.56;;;15.70;100.00
75640;BME280;64233;51.486;6.332;2023-07-31T07:54:13;100578.25;;;15.70;100.00
75640;BME280;64233;51.486;6.332;2023-07-31T07:56:38;100574.38;;;15.76;100.00
75640;BME280;64233;51.486;6.332;2023-07-31T07:59:04;100574.34;;;15.81;100.00
75640;BME280;64233;51.486;6.332;2023-07-31T08:01:29;100571.34;;;15.82;100.00
75640;BME280;64233;51.486;6.332;2023-07-31T08:03:55;100567.84;;;15.82;100.00
75640;BME280;64233;51.486;6.332;2023-07-31T08:06:20;100572.72;;;15.80;100.00
75640;BME280;64233;51.486;6.332;2023-07-31T08:08:45;100568.44;;;15.98;100.00
75640;BME280;64233;51.486;6.332;2023-07-31T08:11:10;100548.38;;;15.80;100.00
75640;BME280;64233;51.486;6.332;2023-07-31T08:13:36;100563.97;;;15.88;100.00
75640;BME280;64233;51.486;6.332;2023-07-31T08:16:04;100560.00;;;15.99;100.00
75640;BME280;64233;51.486;6.332;2023-07-31T08:18:31;100554.75;;;16.08;100.00
75640;BME280;64233;51.486;6.332;2023-07-31T08:20:56;100556.41;;;16.04;100.00
75640;BME280;64233;51.486;6.332;2023-07-31T08:23:21;100560.22;;;16.03;100.00
75640;BME280;64233;51.486;6.332;2023-07-31T08:25:47;100559.78;;;16.15;100.00
75640;BME280;64233;51.486;6.332;2023-07-31T08:28:14;100562.19;;;15.97;100.00
75640;BME280;64233;51.486;6.332;2023-07-31T08:30:40;100556.78;;;15.97;100.00
75640;BME280;64233;51.486;6.332;2023-07-31T08:33:05;100558.94;;;16.00;100.00
75640;BME280;64233;51.486;6.332;2023-07-31T08:35:30;100563.38;;;15.91;100.00
75640;BME280;64233;51.486;6.332;2023-07-31T08:37:55;100561.47;;;15.92;100.00
75640;BME280;64233;51.486;6.332;2023-07-31T08:40:21;100563.94;;;16.07;100.00
75640;BME280;64233;51.486;6.332;2023-07-31T08:42:51;100552.78;;;15.95;100.00
75640;BME280;64233;51.486;6.332;2023-07-31T08:45:18;100564.84;;;16.03;100.00
75640;BME280;64233;51.486;6.332;2023-07-31T08:47:46;100563.44;;;15.86;100.00
75640;BME280;64233;51.486;6.332;2023-07-31T08:50:13;100572.22;;;15.97;100.00
75640;BME280;64233;51.486;6.332;2023-07-31T08:52:39;100575.66;;;16.03;100.00
75640;BME280;64233;51.486;6.332;2023-07-31T08:55:06;100574.56;;;16.04;100.00
75640;BME280;64233;51.486;6.332;2023-07-31T08:57:34;100571.88;;;16.04;100.00
75640;BME280;64233;51.486;6.332;2023-07-31T09:00:00;100575.50;;;16.13;100.00
75640;BME280;64233;51.486;6.332;2023-07-31T09:02:31;100568.50;;;16.12;100.00
75640;BME280;64233;51.486;6.332;2023-07-31T09:05:00;100574.56;;;16.23;100.00
75640;BME280;64233;51.486;6.332;2023-07-31T09:07:26;100575.66;;;16.22;100.00
75640;BME280;64233;51.486;6.332;2023-07-31T09:09:52;100574.63;;;16.37;100.00
75640;BME280;64233;51.486;6.332;2023-07-31T09:12:17;100577.28;;;16.56;100.00
75640;BME280;64233;51.486;6.332;2023-07-31T09:14:45;100574.50;;;16.28;100.00
75640;BME280;64233;51.486;6.332;2023-07-31T09:17:10;100571.41;;;16.15;100.00
75640;BME280;64233;51.486;6.332;2023-07-31T09:19:36;100570.53;;;16.20;100.00
75640;BME280;64233;51.486;6.332;2023-07-31T09:22:06;100565.28;;;16.29;100.00
75640;BME280;64233;51.486;6.332;2023-07-31T09:24:33;100565.53;;;16.27;100.00
75640;BME280;64233;51.486;6.332;2023-07-31T09:27:00;100558.91;;;16.20;100.00
75640;BME280;64233;51.486;6.332;2023-07-31T09:29:27;100565.53;;;16.27;100.00
75640;BME280;64233;51.486;6.332;2023-07-31T09:31:53;100560.13;;;16.46;100.00
75640;BME280;64233;51.486;6.332;2023-07-31T09:34:20;100561.88;;;16.37;100.00
75640;BME280;64233;51.486;6.332;2023-07-31T09:36:47;100549.16;;;16.38;100.00
75640;BME280;64233;51.486;6.332;2023-07-31T09:39:14;100548.44;;;16.32;100.00
75640;BME280;64233;51.486;6.332;2023-07-31T09:41:47;100540.84;;;16.15;100.00
75640;BME280;64233;51.486;6.332;2023-07-31T09:44:12;100545.19;;;16.30;100.00
75640;BME280;64233;51.486;6.332;2023-07-31T09:46:38;100544.28;;;16.21;100.00
75640;BME280;64233;51.486;6.332;2023-07-31T09:51:34;100546.22;;;16.53;100.00
75640;BME280;64233;51.486;6.332;2023-07-31T09:54:04;100535.06;;;16.55;100.00
75640;BME280;64233;51.486;6.332;2023-07-31T09:56:31;100533.56;;;16.62;100.00
75640;BME280;64233;51.486;6.332;2023-07-31T09:58:57;100526.66;;;16.56;100.00
75640;BME280;64233;51.486;6.332;2023-07-31T10:01:23;100524.84;;;16.65;100.00
75640;BME280;64233;51.486;6.332;2023-07-31T10:03:48;100513.81;;;16.62;100.00
75640;BME280;64233;51.486;6.332;2023-07-31T10:06:14;100521.47;;;16.87;100.00
75640;BME280;64233;51.486;6.332;2023-07-31T10:08:45;100518.50;;;16.89;100.00
75640;BME280;64233;51.486;6.332;2023-07-31T10:11:13;100515.88;;;16.98;100.00
75640;BME280;64233;51.486;6.332;2023-07-31T10:13:39;100516.81;;;16.93;100.00
75640;BME280;64233;51.486;6.332;2023-07-31T10:16:05;100512.41;;;17.11;100.00
75640;BME280;64233;51.486;6.332;2023-07-31T10:18:31;100518.84;;;17.15;100.00
75640;BME280;64233;51.486;6.332;2023-07-31T10:20:57;100514.00;;;17.26;100.00
75640;BME280;64233;51.486;6.332;2023-07-31T10:23:23;100504.34;;;17.20;100.00
75640;BME280;64233;51.486;6.332;2023-07-31T10:25:49;100511.06;;;17.36;100.00
75640;BME280;64233;51.486;6.332;2023-07-31T10:28:15;100500.81;;;17.19;100.00
75640;BME280;64233;51.486;6.332;2023-07-31T10:30:41;100500.22;;;17.36;100.00
75640;BME280;64233;51.486;6.332;2023-07-31T10:33:06;100509.47;;;17.35;100.00
75640;BME280;64233;51.486;6.332;2023-07-31T10:35:32;100504.84;;;17.36;100.00
75640;BME280;64233;51.486;6.332;2023-07-31T10:38:09;100497.78;;;17.63;100.00
75640;BME280;64233;51.486;6.332;2023-07-31T10:40:36;100498.78;;;17.53;100.00
75640;BME280;64233;51.486;6.332;2023-07-31T10:43:02;100509.88;;;17.43;100.00
75640;BME280;64233;51.486;6.332;2023-07-31T10:45:31;100505.22;;;17.43;100.00
75640;BME280;64233;51.486;6.332;2023-07-31T10:47:59;100505.53;;;17.42;100.00
75640;BME280;64233;51.486;6.332;2023-07-31T10:50:29;100495.91;;;17.35;100.00
75640;BME280;64233;51.486;6.332;2023-07-31T10:52:55;100500.13;;;17.42;100.00
75640;BME280;64233;51.486;6.332;2023-07-31T10:55:40;100498.81;;;17.39;100.00
75640;BME280;64233;51.486;6.332;2023-07-31T10:58:13;100511.19;;;17.45;100.00
75640;BME280;64233;51.486;6.332;2023-07-31T11:00:43;100503.72;;;17.51;100.00
75640;BME280;64233;51.486;6.332;2023-07-31T11:03:10;100501.72;;;17.43;100.00
75640;BME280;64233;51.486;6.332;2023-07-31T11:05:43;100498.72;;;17.30;100.00
75640;BME280;64233;51.486;6.332;2023-07-31T11:10:42;100512.09;;;17.27;100.00
75640;BME280;64233;51.486;6.332;2023-07-31T11:13:08;100519.72;;;17.11;100.00
75640;BME280;64233;51.486;6.332;2023-07-31T11:15:33;100514.19;;;17.16;100.00
75640;BME280;64233;51.486;6.332;2023-07-31T11:18:00;100507.97;;;17.15;100.00
75640;BME280;64233;51.486;6.332;2023-07-31T11:20:29;100521.81;;;17.28;100.00
75640;BME280;64233;51.486;6.332;2023-07-31T11:22:54;100507.47;;;17.27;100.00
75640;BME280;64233;51.486;6.332;2023-07-31T11:25:22;100504.94;;;17.31;100.00
75640;BME280;64233;51.486;6.332;2023-07-31T11:27:47;100511.34;;;17.49;100.00
75640;BME280;64233;51.486;6.332;2023-07-31T11:30:18;100502.19;;;17.59;100.00
75640;BME280;64233;51.486;6.332;2023-07-31T11:32:44;100495.78;;;17.54;100.00
75640;BME280;64233;51.486;6.332;2023-07-31T11:35:12;100496.19;;;17.48;100.00
75640;BME280;64233;51.486;6.332;2023-07-31T11:37:44;100497.88;;;17.58;100.00
75640;BME280;64233;51.486;6.332;2023-07-31T11:40:11;100487.75;;;17.49;100.00
75640;BME280;64233;51.486;6.332;2023-07-31T11:42:36;100493.34;;;17.67;100.00
75640;BME280;64233;51.486;6.332;2023-07-31T11:45:06;100500.25;;;17.73;100.00
75640;BME280;64233;51.486;6.332;2023-07-31T11:47:32;100496.75;;;17.72;100.00
75640;BME280;64233;51.486;6.332;2023-07-31T11:50:04;100476.38;;;17.61;100.00
75640;BME280;64233;51.486;6.332;2023-07-31T11:52:34;100475.28;;;17.48;100.00
75640;BME280;64233;51.486;6.332;2023-07-31T11:55:01;100480.56;;;17.67;100.00
75640;BME280;64233;51.486;6.332;2023-07-31T11:57:27;100478.06;;;17.71;100.00
75640;BME280;64233;51.486;6.332;2023-07-31T11:59:53;100484.66;;;17.79;100.00
75640;BME280;64233;51.486;6.332;2023-07-31T12:02:19;100474.91;;;17.78;100.00
75640;BME280;64233;51.486;6.332;2023-07-31T12:04:46;100471.13;;;17.87;100.00
75640;BME280;64233;51.486;6.332;2023-07-31T12:07:12;100481.94;;;17.93;100.00
75640;BME280;64233;51.486;6.332;2023-07-31T12:09:38;100471.13;;;17.87;100.00
75640;BME280;64233;51.486;6.332;2023-07-31T12:12:08;100469.13;;;17.93;100.00
75640;BME280;64233;51.486;6.332;2023-07-31T12:14:34;100471.66;;;17.89;100.00
75640;BME280;64233;51.486;6.332;2023-07-31T12:17:03;100465.00;;;17.96;100.00
75640;BME280;64233;51.486;6.332;2023-07-31T12:19:29;100469.72;;;17.90;100.00
75640;BME280;64233;51.486;6.332;2023-07-31T12:21:58;100459.00;;;17.85;100.00
75640;BME280;64233;51.486;6.332;2023-07-31T12:24:26;100467.78;;;18.04;100.00
75640;BME280;64233;51.486;6.332;2023-07-31T12:26:51;100462.88;;;18.06;100.00
75640;BME280;64233;51.486;6.332;2023-07-31T12:29:17;100463.91;;;17.97;100.00
75640;BME280;64233;51.486;6.332;2023-07-31T12:31:43;100471.31;;;18.05;100.00
75640;BME280;64233;51.486;6.332;2023-07-31T12:34:18;100465.03;;;17.82;100.00
75640;BME280;64233;51.486;6.332;2023-07-31T12:36:45;100469.78;;;17.76;100.00
75640;BME280;64233;51.486;6.332;2023-07-31T12:39:11;100482.50;;;17.89;100.00
75640;BME280;64233;51.486;6.332;2023-07-31T12:41:36;100476.38;;;17.98;100.00
75640;BME280;64233;51.486;6.332;2023-07-31T12:44:02;100474.78;;;17.97;100.00
75640;BME280;64233;51.486;6.332;2023-07-31T12:46:28;100462.81;;;17.98;100.00
75640;BME280;64233;51.486;6.332;2023-07-31T12:48:53;100448.25;;;17.94;100.00
75640;BME280;64233;51.486;6.332;2023-07-31T12:51:18;100449.09;;;18.03;100.00